Time;durP1;ratioP1;P1;durP2;ratioP2;P2;SDS_P1;SDS_P2;PMS_P1;PMS_P2;Temp;Humidity;BMP_temperature;BMP_pressure;BME280_temperature;BME280_humidity;BME280_pressure;Samples;Min_cycle;Max_cycle;Signal;HPM_P1;HPM_P2
2021/12/27 00:02:18;;;;;;;;;4.25;4.25;;;;;;;;5058492;28;45737;-66
2021/12/27 00:04:44;;;;;;;;;2.00;2.00;;;;;;;;5051154;28;45901;-66
2021/12/27 00:07:10;;;;;;;;;2.33;2.33;;;;;;;;5053642;28;45510;-67
2021/12/27 00:09:36;;;;;;;;;5.00;3.00;;;;;;;;5042929;28;45433;-66
2021/12/27 00:12:01;;;;;;;;;2.00;2.00;;;;;;;;5063620;28;45256;-67
2021/12/27 00:14:26;;;;;;;;;2.25;2.00;;;;;;;;5039873;28;48167;-66
2021/12/27 00:16:51;;;;;;;;;3.00;3.00;;;;;;;;5060169;28;45508;-66
2021/12/27 00:19:17;;;;;;;;;4.00;4.00;;;;;;;;5049702;28;45504;-66
2021/12/27 00:21:42;;;;;;;;;2.33;2.33;;;;;;;;5060063;28;45361;-66
2021/12/27 00:24:07;;;;;;;;;5.33;4.33;;;;;;;;5064471;28;45802;-66
2021/12/27 00:26:32;;;;;;;;;4.00;3.00;;;;;;;;5057180;28;45439;-66
2021/12/27 00:28:57;;;;;;;;;3.00;1.67;;;;;;;;5045501;28;45461;-65
2021/12/27 00:31:23;;;;;;;;;1.33;1.33;;;;;;;;5066308;28;45425;-65
2021/12/27 00:33:48;;;;;;;;;1.67;1.00;;;;;;;;5041423;28;48886;-65
2021/12/27 00:36:14;;;;;;;;;2.00;2.00;;;;;;;;5065894;28;45380;-65
2021/12/27 00:38:39;;;;;;;;;2.00;2.00;;;;;;;;5056036;28;45470;-66
2021/12/27 00:41:04;;;;;;;;;3.00;2.00;;;;;;;;5061330;27;45433;-65
2021/12/27 00:43:30;;;;;;;;;5.00;2.00;;;;;;;;5065520;28;46542;-66
2021/12/27 00:45:55;;;;;;;;;1.50;1.50;;;;;;;;5062197;28;45397;-65
2021/12/27 00:48:20;;;;;;;;;3.00;2.00;;;;;;;;5071159;28;45450;-65
2021/12/27 00:50:45;;;;;;;;;2.00;2.00;;;;;;;;5059532;28;45307;-65
2021/12/27 00:53:11;;;;;;;;;3.00;3.00;;;;;;;;5050225;28;46971;-65
2021/12/27 00:55:36;;;;;;;;;2.33;1.67;;;;;;;;5050978;28;45526;-65
2021/12/27 00:58:02;;;;;;;;;2.00;2.00;;;;;;;;5036292;28;47144;-65
2021/12/27 01:00:27;;;;;;;;;2.33;1.00;;;;;;;;5055768;28;45356;-65
2021/12/27 01:02:55;;;;;;;;;2.00;2.00;;;;;;;;5048751;28;46398;-65
2021/12/27 01:05:23;;;;;;;;;1.00;1.00;;;;;;;;5055178;28;45500;-64
2021/12/27 01:07:48;;;;;;;;;3.00;1.00;;;;;;;;5038071;28;45528;-65
2021/12/27 01:13:02;;;;;;;;;1.00;1.00;;;;;;;;5069765;28;45672;-66
2021/12/27 01:18:05;;;;;;;;;3.00;1.00;;;;;;;;5066777;28;45366;-64
2021/12/27 01:20:30;;;;;;;;;2.00;1.00;;;;;;;;5059099;28;45358;-63
2021/12/27 01:22:56;;;;;;;;;1.00;1.00;;;;;;;;5042258;28;48395;-64
2021/12/27 01:25:21;;;;;;;;;2.00;1.00;;;;;;;;5051127;28;45403;-63
2021/12/27 01:27:47;;;;;;;;;3.00;1.00;;;;;;;;5061339;28;45469;-63
2021/12/27 01:30:19;;;;;;;;;3.00;3.00;;;;;;;;5035265;28;45560;-64
2021/12/27 01:32:49;;;;;;;;;2.00;1.00;;;;;;;;5036138;28;48734;-64
2021/12/27 01:35:14;;;;;;;;;1.33;1.33;;;;;;;;5063221;28;45328;-63
2021/12/27 01:37:39;;;;;;;;;1.33;1.00;;;;;;;;5042052;28;45487;-64
2021/12/27 01:40:05;;;;;;;;;0.67;0.67;;;;;;;;5038310;28;45602;-62
2021/12/27 01:42:30;;;;;;;;;2.00;2.00;;;;;;;;5071685;27;46946;-64
2021/12/27 01:44:56;;;;;;;;;2.00;0.00;;;;;;;;5035533;28;48067;-64
2021/12/27 01:47:21;;;;;;;;;2.33;1.00;;;;;;;;5062910;28;45441;-64
2021/12/27 01:49:46;;;;;;;;;1.33;1.00;;;;;;;;5077366;27;45591;-64
2021/12/27 01:52:11;;;;;;;;;2.67;1.67;;;;;;;;5041193;28;47430;-64
2021/12/27 01:54:37;;;;;;;;;3.00;1.33;;;;;;;;5051600;28;45306;-64
2021/12/27 01:57:02;;;;;;;;;0.67;0.33;;;;;;;;5036994;28;45571;-64
2021/12/27 01:59:27;;;;;;;;;2.00;2.00;;;;;;;;5047648;28;45425;-63
2021/12/27 02:01:53;;;;;;;;;1.00;0.67;;;;;;;;5050454;28;45935;-63
2021/12/27 02:04:18;;;;;;;;;3.00;2.00;;;;;;;;5058213;28;45372;-65
2021/12/27 02:06:44;;;;;;;;;2.00;1.00;;;;;;;;5053192;28;45396;-63
2021/12/27 02:09:09;;;;;;;;;3.00;0.67;;;;;;;;5041117;28;45697;-64
2021/12/27 02:11:35;;;;;;;;;1.00;1.00;;;;;;;;5064026;28;46913;-63
2021/12/27 02:14:04;;;;;;;;;3.00;1.00;;;;;;;;5075197;27;45500;-63
2021/12/27 02:16:29;;;;;;;;;2.00;1.33;;;;;;;;5059286;28;46084;-63
2021/12/27 02:18:55;;;;;;;;;1.00;0.00;;;;;;;;5068304;28;45508;-64
2021/12/27 02:21:21;;;;;;;;;0.00;0.00;;;;;;;;5059974;28;46343;-63
2021/12/27 02:23:48;;;;;;;;;0.33;0.33;;;;;;;;5045798;28;46092;-63
2021/12/27 02:26:13;;;;;;;;;2.00;0.67;;;;;;;;5057376;28;45514;-63
2021/12/27 02:28:38;;;;;;;;;2.00;1.00;;;;;;;;5059025;28;45516;-63
2021/12/27 02:31:04;;;;;;;;;1.00;1.00;;;;;;;;5067338;28;46553;-63
2021/12/27 02:33:30;;;;;;;;;0.00;0.00;;;;;;;;5044174;28;46105;-64
2021/12/27 02:35:57;;;;;;;;;0.00;0.00;;;;;;;;5079550;27;45362;-63
2021/12/27 02:38:27;;;;;;;;;0.00;0.00;;;;;;;;5056166;28;45572;-64
2021/12/27 02:40:52;;;;;;;;;1.33;0.33;;;;;;;;5045132;28;45570;-64
2021/12/27 02:43:19;;;;;;;;;0.00;0.00;;;;;;;;5080786;27;45489;-64
2021/12/27 02:45:48;;;;;;;;;1.00;1.00;;;;;;;;5060712;28;45446;-64
2021/12/27 02:48:14;;;;;;;;;1.00;1.00;;;;;;;;5063153;28;45479;-64
2021/12/27 02:50:40;;;;;;;;;1.00;1.00;;;;;;;;5033197;28;47975;-64
2021/12/27 02:53:06;;;;;;;;;1.00;1.00;;;;;;;;5052794;28;45391;-64
2021/12/27 02:55:32;;;;;;;;;1.67;1.00;;;;;;;;5049352;28;46226;-63
2021/12/27 02:57:57;;;;;;;;;0.00;0.00;;;;;;;;5059923;28;45353;-63
2021/12/27 03:00:24;;;;;;;;;1.33;1.33;;;;;;;;5049229;28;46841;-63
2021/12/27 03:02:50;;;;;;;;;2.00;1.00;;;;;;;;5034878;28;46472;-65
2021/12/27 03:05:17;;;;;;;;;1.67;1.33;;;;;;;;5060895;28;46033;-62
2021/12/27 03:07:42;;;;;;;;;1.00;1.00;;;;;;;;5060481;28;45483;-64
2021/12/27 03:10:09;;;;;;;;;1.00;1.00;;;;;;;;5042072;28;47691;-64
2021/12/27 03:12:34;;;;;;;;;1.00;0.00;;;;;;;;5051665;28;45409;-63
2021/12/27 03:14:59;;;;;;;;;3.67;3.00;;;;;;;;5054452;28;45499;-65
2021/12/27 03:17:24;;;;;;;;;2.67;2.33;;;;;;;;5042645;28;45596;-63
2021/12/27 03:19:50;;;;;;;;;3.67;3.00;;;;;;;;5075671;27;47802;-63
2021/12/27 03:22:15;;;;;;;;;1.67;1.67;;;;;;;;5051654;28;45392;-63
2021/12/27 03:24:40;;;;;;;;;3.00;3.00;;;;;;;;5049377;28;45515;-64
2021/12/27 03:27:05;;;;;;;;;3.00;3.00;;;;;;;;5045228;28;45334;-63
2021/12/27 03:29:31;;;;;;;;;2.00;2.00;;;;;;;;5026203;28;48745;-62
2021/12/27 03:31:58;;;;;;;;;3.00;3.00;;;;;;;;5045831;28;45938;-63
2021/12/27 03:34:23;;;;;;;;;4.00;2.00;;;;;;;;5037644;28;45439;-62
2021/12/27 03:36:48;;;;;;;;;6.00;3.00;;;;;;;;5046798;28;45359;-63
2021/12/27 03:39:14;;;;;;;;;2.00;2.00;;;;;;;;5036091;28;47305;-63
2021/12/27 03:41:39;;;;;;;;;2.67;2.67;;;;;;;;5051641;28;45402;-63
2021/12/27 03:44:04;;;;;;;;;1.67;1.00;;;;;;;;5035478;28;45516;-63
2021/12/27 03:46:30;;;;;;;;;2.00;2.00;;;;;;;;5053803;28;45350;-64
2021/12/27 03:48:55;;;;;;;;;4.67;3.00;;;;;;;;5053563;28;45349;-64
2021/12/27 03:51:21;;;;;;;;;6.00;2.67;;;;;;;;5054312;28;45349;-63
2021/12/27 03:53:46;;;;;;;;;3.00;3.00;;;;;;;;5053837;28;46011;-64
2021/12/27 03:56:11;;;;;;;;;2.00;2.00;;;;;;;;5035054;28;45482;-63
2021/12/27 03:58:54;;;;;;;;;4.00;4.00;;;;;;;;5046416;28;45987;-64
2021/12/27 04:01:21;;;;;;;;;5.00;4.00;;;;;;;;5034578;28;45679;-63
2021/12/27 04:03:48;;;;;;;;;4.33;4.33;;;;;;;;5035172;28;45447;-63
2021/12/27 04:06:14;;;;;;;;;5.00;3.67;;;;;;;;5048826;28;45240;-63
2021/12/27 04:08:40;;;;;;;;;5.00;4.33;;;;;;;;5031564;28;49081;-64
2021/12/27 04:11:05;;;;;;;;;7.00;4.00;;;;;;;;5034571;28;45526;-62
2021/12/27 04:13:30;;;;;;;;;4.33;2.00;;;;;;;;5049643;28;45948;-63
2021/12/27 04:15:55;;;;;;;;;3.00;3.00;;;;;;;;5052915;28;45413;-63
2021/12/27 04:18:21;;;;;;;;;4.00;3.00;;;;;;;;5034996;28;46729;-64
2021/12/27 04:20:46;;;;;;;;;3.33;3.33;;;;;;;;5053148;28;45361;-63
2021/12/27 04:23:12;;;;;;;;;3.75;3.75;;;;;;;;5053077;28;45425;-62
2021/12/27 04:25:37;;;;;;;;;5.67;4.00;;;;;;;;5035200;28;45493;-63
2021/12/27 04:28:02;;;;;;;;;3.33;3.33;;;;;;;;5052746;28;45382;-62
2021/12/27 04:30:28;;;;;;;;;2.00;2.00;;;;;;;;5035930;28;47722;-62
2021/12/27 04:32:53;;;;;;;;;4.00;4.00;;;;;;;;5035175;28;45472;-62
2021/12/27 04:35:20;;;;;;;;;5.00;4.00;;;;;;;;5052943;28;45428;-63
2021/12/27 04:37:46;;;;;;;;;5.00;3.00;;;;;;;;5052731;28;46635;-62
2021/12/27 04:40:12;;;;;;;;;4.67;3.67;;;;;;;;5053056;28;45520;-63
2021/12/27 04:42:39;;;;;;;;;5.75;4.75;;;;;;;;5035198;28;45367;-63
2021/12/27 04:45:04;;;;;;;;;3.00;3.00;;;;;;;;5050196;28;45307;-62
2021/12/27 04:47:30;;;;;;;;;7.67;5.00;;;;;;;;5050047;28;47898;-62
2021/12/27 04:49:55;;;;;;;;;7.00;4.00;;;;;;;;5032999;28;46312;-63
2021/12/27 04:52:20;;;;;;;;;4.75;4.50;;;;;;;;5033458;28;45403;-61
2021/12/27 04:54:45;;;;;;;;;8.75;5.25;;;;;;;;5034734;28;45538;-63
2021/12/27 04:57:11;;;;;;;;;5.75;5.00;;;;;;;;5053354;28;45526;-63
2021/12/27 04:59:36;;;;;;;;;5.67;3.00;;;;;;;;5052223;28;45394;-63
2021/12/27 05:02:01;;;;;;;;;4.67;3.67;;;;;;;;5033830;28;45559;-62
2021/12/27 05:04:26;;;;;;;;;3.33;3.00;;;;;;;;5052840;28;45566;-62
2021/12/27 05:06:52;;;;;;;;;3.33;3.00;;;;;;;;5052651;28;45695;-63
2021/12/27 05:09:17;;;;;;;;;5.00;4.00;;;;;;;;5035438;28;45542;-64
2021/12/27 05:11:42;;;;;;;;;4.25;3.00;;;;;;;;5034737;28;45410;-64
2021/12/27 05:14:07;;;;;;;;;3.67;3.33;;;;;;;;5034201;28;45501;-64
2021/12/27 05:16:33;;;;;;;;;5.00;3.33;;;;;;;;5052163;28;46444;-64
2021/12/27 05:18:58;;;;;;;;;5.25;3.25;;;;;;;;5052368;28;45381;-63
2021/12/27 05:21:24;;;;;;;;;3.00;3.00;;;;;;;;5050977;28;45371;-63
2021/12/27 05:23:49;;;;;;;;;5.00;4.00;;;;;;;;5051034;28;45452;-63
2021/12/27 05:26:14;;;;;;;;;5.00;4.33;;;;;;;;5051565;28;46532;-63
2021/12/27 05:28:39;;;;;;;;;5.00;3.67;;;;;;;;5052397;28;45417;-64
2021/12/27 05:31:04;;;;;;;;;4.00;4.00;;;;;;;;5053966;28;45298;-63
2021/12/27 05:33:30;;;;;;;;;6.00;4.00;;;;;;;;5055476;28;45793;-63
2021/12/27 05:35:55;;;;;;;;;3.00;3.00;;;;;;;;5055093;28;46167;-64
2021/12/27 05:38:20;;;;;;;;;6.75;4.00;;;;;;;;5055397;28;45476;-63
2021/12/27 05:40:46;;;;;;;;;2.50;2.25;;;;;;;;5055805;28;45342;-64
2021/12/27 05:43:11;;;;;;;;;7.00;4.67;;;;;;;;5055378;28;45871;-63
2021/12/27 05:45:36;;;;;;;;;8.33;6.00;;;;;;;;5056033;28;46637;-64
2021/12/27 05:48:03;;;;;;;;;5.33;5.33;;;;;;;;5037814;28;45609;-63
2021/12/27 05:50:28;;;;;;;;;4.00;4.00;;;;;;;;5055966;28;45772;-63
2021/12/27 05:52:53;;;;;;;;;9.33;5.33;;;;;;;;5055324;28;45359;-63
2021/12/27 05:55:19;;;;;;;;;4.00;4.00;;;;;;;;5054690;28;46179;-63
2021/12/27 05:57:44;;;;;;;;;5.50;5.50;;;;;;;;5054690;28;45632;-63
2021/12/27 06:00:10;;;;;;;;;6.25;5.75;;;;;;;;5037162;28;45393;-63
2021/12/27 06:02:36;;;;;;;;;5.25;5.00;;;;;;;;5034442;28;45879;-63
2021/12/27 06:05:01;;;;;;;;;3.33;3.33;;;;;;;;5046762;28;45970;-64
2021/12/27 06:07:26;;;;;;;;;6.00;5.00;;;;;;;;5054957;28;45449;-63
2021/12/27 06:09:51;;;;;;;;;5.00;5.00;;;;;;;;5054668;28;45393;-64
2021/12/27 06:12:17;;;;;;;;;4.00;4.00;;;;;;;;5055834;28;45483;-64
2021/12/27 06:14:42;;;;;;;;;5.00;5.00;;;;;;;;5055258;28;46568;-64
2021/12/27 06:17:07;;;;;;;;;4.00;4.00;;;;;;;;5055024;28;45434;-64
2021/12/27 06:19:33;;;;;;;;;6.00;5.50;;;;;;;;5054898;28;45397;-64
2021/12/27 06:21:58;;;;;;;;;7.00;5.25;;;;;;;;5054494;28;46085;-64
2021/12/27 06:24:25;;;;;;;;;7.00;6.00;;;;;;;;5055463;28;45555;-64
2021/12/27 06:26:50;;;;;;;;;6.50;5.25;;;;;;;;5036450;28;46284;-64
2021/12/27 06:29:15;;;;;;;;;6.00;6.00;;;;;;;;5055070;28;45433;-64
2021/12/27 06:31:41;;;;;;;;;6.50;6.00;;;;;;;;5054735;28;45863;-64
2021/12/27 06:34:06;;;;;;;;;7.50;6.50;;;;;;;;5036833;28;48420;-63
2021/12/27 06:36:32;;;;;;;;;10.00;8.00;;;;;;;;5037270;28;46228;-63
2021/12/27 06:38:57;;;;;;;;;11.00;7.00;;;;;;;;5036599;28;45404;-65
2021/12/27 06:41:25;;;;;;;;;5.75;5.75;;;;;;;;5054263;28;45408;-64
2021/12/27 06:43:50;;;;;;;;;3.25;1.00;;;;;;;;5035896;28;46921;-64
2021/12/27 06:46:16;;;;;;;;;6.50;6.50;;;;;;;;5036513;28;46647;-64
2021/12/27 06:48:41;;;;;;;;;9.25;8.50;;;;;;;;5054916;28;45440;-65
2021/12/27 06:51:06;;;;;;;;;8.75;6.50;;;;;;;;5055098;28;45463;-66
2021/12/27 06:53:31;;;;;;;;;6.50;6.50;;;;;;;;5054151;28;45375;-63
2021/12/27 06:55:57;;;;;;;;;11.00;7.50;;;;;;;;5054089;28;45394;-66
2021/12/27 06:58:23;;;;;;;;;7.00;6.00;;;;;;;;5054467;28;45723;-65
2021/12/27 07:00:48;;;;;;;;;7.25;5.00;;;;;;;;5036212;28;45482;-65
2021/12/27 07:03:14;;;;;;;;;8.25;8.25;;;;;;;;5036439;28;48591;-65
2021/12/27 07:05:40;;;;;;;;;8.25;7.00;;;;;;;;5053624;28;45523;-65
2021/12/27 07:08:05;;;;;;;;;5.00;4.00;;;;;;;;5035526;28;45472;-66
2021/12/27 07:10:31;;;;;;;;;6.25;6.00;;;;;;;;5054274;28;45427;-66
2021/12/27 07:12:56;;;;;;;;;6.25;6.25;;;;;;;;5035821;28;47962;-66
2021/12/27 07:15:21;;;;;;;;;6.75;5.25;;;;;;;;5036590;28;45439;-66
2021/12/27 07:17:47;;;;;;;;;7.00;7.00;;;;;;;;5053783;28;45460;-65
2021/12/27 07:20:12;;;;;;;;;6.25;5.50;;;;;;;;5053994;28;45468;-65
2021/12/27 07:22:37;;;;;;;;;7.50;7.50;;;;;;;;5053612;28;45678;-66
2021/12/27 07:25:03;;;;;;;;;2.00;2.00;;;;;;;;5036068;28;46647;-65
2021/12/27 07:27:28;;;;;;;;;6.00;6.00;;;;;;;;5054842;28;45760;-66
2021/12/27 07:29:53;;;;;;;;;10.00;10.00;;;;;;;;5035600;28;45330;-66
2021/12/27 07:32:19;;;;;;;;;5.25;5.25;;;;;;;;5035794;28;47899;-65
2021/12/27 07:34:45;;;;;;;;;6.50;5.75;;;;;;;;5036075;28;46341;-64
2021/12/27 07:37:10;;;;;;;;;7.25;6.50;;;;;;;;5036312;28;45486;-65
2021/12/27 07:39:35;;;;;;;;;10.00;6.50;;;;;;;;5036478;28;45413;-65
2021/12/27 07:42:01;;;;;;;;;5.50;4.50;;;;;;;;5053885;28;45712;-65
2021/12/27 07:44:26;;;;;;;;;8.00;6.00;;;;;;;;5053936;28;45602;-65
2021/12/27 07:46:51;;;;;;;;;10.75;6.75;;;;;;;;5035981;28;45777;-65
2021/12/27 07:49:17;;;;;;;;;6.75;6.75;;;;;;;;5053975;28;45652;-66
2021/12/27 07:51:42;;;;;;;;;10.50;7.50;;;;;;;;5035947;28;47912;-66
2021/12/27 07:54:07;;;;;;;;;8.00;6.50;;;;;;;;5053504;28;45373;-66
2021/12/27 07:56:33;;;;;;;;;5.25;5.25;;;;;;;;5035692;28;45485;-66
2021/12/27 07:59:03;;;;;;;;;10.00;9.50;;;;;;;;5053818;28;45505;-66
2021/12/27 08:01:29;;;;;;;;;6.25;6.25;;;;;;;;5052962;28;46394;-65
2021/12/27 08:03:54;;;;;;;;;8.50;6.50;;;;;;;;5035181;28;45573;-65
2021/12/27 08:06:19;;;;;;;;;6.00;6.00;;;;;;;;5035992;28;45294;-66
2021/12/27 08:08:44;;;;;;;;;7.00;4.50;;;;;;;;5035632;28;45456;-65
2021/12/27 08:11:10;;;;;;;;;5.50;5.50;;;;;;;;5035603;28;48710;-65
2021/12/27 08:13:37;;;;;;;;;5.00;5.00;;;;;;;;5069047;28;45487;-67
2021/12/27 08:16:02;;;;;;;;;5.00;4.00;;;;;;;;5035771;28;45410;-66
2021/12/27 08:18:29;;;;;;;;;8.50;4.75;;;;;;;;5053921;28;45291;-66
2021/12/27 08:20:55;;;;;;;;;5.00;4.00;;;;;;;;5034496;28;48360;-65
2021/12/27 08:23:20;;;;;;;;;3.50;3.00;;;;;;;;5052122;28;45929;-65
2021/12/27 08:25:45;;;;;;;;;5.50;3.75;;;;;;;;5034647;28;45512;-66
2021/12/27 08:28:10;;;;;;;;;5.75;3.25;;;;;;;;5053043;28;45279;-65
2021/12/27 08:30:36;;;;;;;;;3.00;3.00;;;;;;;;5052692;28;46034;-64
2021/12/27 08:33:01;;;;;;;;;5.25;5.25;;;;;;;;5052856;28;45505;-63
2021/12/27 08:35:27;;;;;;;;;3.50;3.00;;;;;;;;5034461;28;45997;-66
2021/12/27 08:37:52;;;;;;;;;5.00;3.00;;;;;;;;5068419;28;45491;-64
2021/12/27 08:40:17;;;;;;;;;4.00;3.25;;;;;;;;5052799;28;45482;-65
2021/12/27 08:42:43;;;;;;;;;3.00;3.00;;;;;;;;5033526;28;45851;-66
2021/12/27 08:45:08;;;;;;;;;3.50;3.50;;;;;;;;5025756;28;45289;-64
2021/12/27 08:47:34;;;;;;;;;2.00;2.00;;;;;;;;5026820;28;45548;-63
2021/12/27 08:50:00;;;;;;;;;4.50;4.00;;;;;;;;5042321;28;45658;-64
2021/12/27 08:52:25;;;;;;;;;3.50;3.50;;;;;;;;5044773;28;45385;-63
2021/12/27 08:54:51;;;;;;;;;4.75;4.75;;;;;;;;5034476;28;45478;-64
2021/12/27 08:57:16;;;;;;;;;3.00;3.00;;;;;;;;5053831;28;45373;-63
2021/12/27 08:59:41;;;;;;;;;3.75;2.75;;;;;;;;5034812;28;49400;-63
2021/12/27 09:02:07;;;;;;;;;3.75;2.75;;;;;;;;5034767;28;46225;-64
2021/12/27 09:04:32;;;;;;;;;3.00;1.50;;;;;;;;5034666;28;45378;-65
2021/12/27 09:06:58;;;;;;;;;4.25;3.00;;;;;;;;5038673;28;45700;-69
2021/12/27 09:09:23;;;;;;;;;4.00;3.00;;;;;;;;5038843;28;47700;-63
2021/12/27 09:11:48;;;;;;;;;4.00;4.00;;;;;;;;5038165;28;46296;-65
2021/12/27 09:14:14;;;;;;;;;4.00;4.00;;;;;;;;5056549;28;45476;-65
2021/12/27 09:16:39;;;;;;;;;3.25;2.00;;;;;;;;5056158;28;45469;-65
2021/12/27 09:19:04;;;;;;;;;3.75;3.00;;;;;;;;5038141;28;48000;-65
2021/12/27 09:21:30;;;;;;;;;4.00;4.00;;;;;;;;5052212;28;45314;-66
2021/12/27 09:23:55;;;;;;;;;3.00;3.00;;;;;;;;5056057;28;45411;-65
2021/12/27 09:26:20;;;;;;;;;4.00;4.00;;;;;;;;5037739;28;45401;-65
2021/12/27 09:28:45;;;;;;;;;4.50;2.75;;;;;;;;5055846;28;47720;-64
2021/12/27 09:31:10;;;;;;;;;3.50;3.50;;;;;;;;5055852;28;45423;-65
2021/12/27 09:33:36;;;;;;;;;1.75;1.50;;;;;;;;5056388;28;45332;-66
2021/12/27 09:36:02;;;;;;;;;4.33;3.00;;;;;;;;5056193;28;45365;-64
2021/12/27 09:38:27;;;;;;;;;4.25;2.50;;;;;;;;5037241;28;46616;-64
2021/12/27 09:40:52;;;;;;;;;3.00;1.00;;;;;;;;5037602;28;45403;-64
2021/12/27 09:43:17;;;;;;;;;2.00;2.00;;;;;;;;5037621;28;45377;-64
2021/12/27 09:45:43;;;;;;;;;3.25;3.25;;;;;;;;5037992;28;45446;-65
2021/12/27 09:48:08;;;;;;;;;2.00;2.00;;;;;;;;5038025;28;47554;-65
2021/12/27 09:50:38;;;;;;;;;2.00;2.00;;;;;;;;5037278;28;45430;-64
2021/12/27 09:53:03;;;;;;;;;4.50;3.50;;;;;;;;5037415;28;45445;-64
2021/12/27 09:55:29;;;;;;;;;4.00;3.00;;;;;;;;5036064;28;45484;-65
2021/12/27 09:57:55;;;;;;;;;3.00;2.50;;;;;;;;5054194;28;45786;-65
2021/12/27 10:00:20;;;;;;;;;4.75;3.00;;;;;;;;5037744;28;45772;-64
2021/12/27 10:02:48;;;;;;;;;4.25;4.00;;;;;;;;5035113;28;45393;-65
2021/12/27 10:05:14;;;;;;;;;3.75;3.00;;;;;;;;5069905;28;45961;-64
2021/12/27 10:07:41;;;;;;;;;3.00;3.00;;;;;;;;5036735;28;48199;-66
2021/12/27 10:10:07;;;;;;;;;4.00;4.00;;;;;;;;5054315;28;45433;-66
2021/12/27 10:12:32;;;;;;;;;4.00;4.00;;;;;;;;5036577;28;45382;-65
2021/12/27 10:15:01;;;;;;;;;5.33;4.00;;;;;;;;5050868;28;45389;-65
2021/12/27 10:17:29;;;;;;;;;3.75;3.00;;;;;;;;5050245;28;45531;-65
2021/12/27 10:19:55;;;;;;;;;5.00;5.00;;;;;;;;5036540;28;45497;-64
2021/12/27 10:22:23;;;;;;;;;3.50;3.50;;;;;;;;5036313;28;46006;-65
2021/12/27 10:24:49;;;;;;;;;3.25;3.00;;;;;;;;5036275;28;45656;-65
2021/12/27 10:27:15;;;;;;;;;6.00;6.00;;;;;;;;5052023;28;45531;-65
2021/12/27 10:29:41;;;;;;;;;6.00;5.00;;;;;;;;5054291;28;45402;-65
2021/12/27 10:32:06;;;;;;;;;3.75;3.75;;;;;;;;5036661;28;45346;-65
2021/12/27 10:34:33;;;;;;;;;3.00;3.00;;;;;;;;5036829;28;45763;-65
2021/12/27 10:37:11;;;;;;;;;3.67;3.67;;;;;;;;5036049;28;47607;-65
2021/12/27 10:39:41;;;;;;;;;3.25;3.25;;;;;;;;5049578;28;45893;-65
2021/12/27 10:42:07;;;;;;;;;4.50;4.50;;;;;;;;5054607;28;45399;-66
2021/12/27 10:44:34;;;;;;;;;4.00;3.00;;;;;;;;5053976;28;45481;-64
2021/12/27 10:46:59;;;;;;;;;2.50;2.50;;;;;;;;5036381;28;46657;-65
2021/12/27 10:49:43;;;;;;;;;3.50;3.25;;;;;;;;5036265;28;45529;-64
2021/12/27 10:52:08;;;;;;;;;4.00;4.00;;;;;;;;5038949;28;45834;-65
2021/12/27 10:54:37;;;;;;;;;6.25;4.75;;;;;;;;5053889;28;45921;-65
2021/12/27 10:57:03;;;;;;;;;6.00;3.75;;;;;;;;5053014;28;47669;-65
2021/12/27 10:59:29;;;;;;;;;4.50;3.00;;;;;;;;5068535;28;45953;-65
2021/12/27 11:01:55;;;;;;;;;3.00;3.00;;;;;;;;5036202;28;45433;-65
2021/12/27 11:04:20;;;;;;;;;3.00;3.00;;;;;;;;5053549;28;45499;-64
2021/12/27 11:06:46;;;;;;;;;4.00;4.00;;;;;;;;5053420;28;45675;-64
2021/12/27 11:09:14;;;;;;;;;2.75;2.50;;;;;;;;5036174;28;45304;-65
2021/12/27 11:11:40;;;;;;;;;1.00;1.00;;;;;;;;5054064;28;45315;-64
2021/12/27 11:14:05;;;;;;;;;3.00;3.00;;;;;;;;5051511;28;45564;-65
2021/12/27 11:16:31;;;;;;;;;2.00;2.00;;;;;;;;5045944;28;46472;-64
2021/12/27 11:18:56;;;;;;;;;1.25;1.25;;;;;;;;5035384;28;46179;-65
2021/12/27 11:21:23;;;;;;;;;1.00;1.00;;;;;;;;5054304;28;45317;-65
2021/12/27 11:23:49;;;;;;;;;1.00;1.00;;;;;;;;5054062;28;45540;-65
2021/12/27 11:26:20;;;;;;;;;1.33;0.33;;;;;;;;5035025;28;48895;-65
2021/12/27 11:28:45;;;;;;;;;0.67;0.67;;;;;;;;5051397;28;45433;-64
2021/12/27 11:31:16;;;;;;;;;3.00;2.00;;;;;;;;5034873;28;45577;-66
2021/12/27 11:34:12;;;;;;;;;2.33;1.00;;;;;;;;5035826;28;45617;-65
2021/12/27 11:36:42;;;;;;;;;2.00;2.00;;;;;;;;4988259;28;45446;-65
2021/12/27 11:39:22;;;;;;;;;1.00;1.00;;;;;;;;5007770;28;45955;-66
2021/12/27 11:42:00;;;;;;;;;2.00;2.00;;;;;;;;5001375;28;45715;-63
2021/12/27 11:44:34;;;;;;;;;3.00;3.00;;;;;;;;4972210;28;45621;-65
2021/12/27 11:47:00;;;;;;;;;2.00;2.00;;;;;;;;4983182;28;45437;-65
2021/12/27 11:49:33;;;;;;;;;2.00;2.00;;;;;;;;4984503;28;46461;-65
2021/12/27 11:52:16;;;;;;;;;2.00;2.00;;;;;;;;4972227;28;45401;-64
2021/12/27 11:54:49;;;;;;;;;0.33;0.33;;;;;;;;4996589;28;45511;-65
2021/12/27 11:57:34;;;;;;;;;2.00;2.00;;;;;;;;4986238;28;48736;-65
2021/12/27 11:59:59;;;;;;;;;3.33;2.00;;;;;;;;5008779;28;45899;-66
2021/12/27 12:02:25;;;;;;;;;1.00;1.00;;;;;;;;4992619;28;47880;-65
2021/12/27 12:04:52;;;;;;;;;2.00;2.00;;;;;;;;4988058;28;45425;-65
2021/12/27 12:07:32;;;;;;;;;2.00;1.00;;;;;;;;4980574;28;45639;-65
2021/12/27 12:09:58;;;;;;;;;2.67;2.00;;;;;;;;4965585;28;46385;-65
2021/12/27 12:12:23;;;;;;;;;1.00;1.00;;;;;;;;4985667;28;45447;-64
2021/12/27 12:14:55;;;;;;;;;2.33;2.00;;;;;;;;5049145;28;45362;-65
2021/12/27 12:17:34;;;;;;;;;2.00;2.00;;;;;;;;5049683;28;48056;-65
2021/12/27 12:20:00;;;;;;;;;3.00;2.00;;;;;;;;5041974;28;45789;-65
2021/12/27 12:22:37;;;;;;;;;2.00;2.00;;;;;;;;5017557;28;45462;-65
2021/12/27 12:25:21;;;;;;;;;2.00;2.00;;;;;;;;5049020;28;45355;-64
2021/12/27 12:27:57;;;;;;;;;2.67;1.33;;;;;;;;5026134;28;47542;-64
2021/12/27 12:30:25;;;;;;;;;2.00;2.00;;;;;;;;5058606;28;45481;-63
2021/12/27 12:33:20;;;;;;;;;0.33;0.00;;;;;;;;5065289;27;45468;-64
2021/12/27 12:35:46;;;;;;;;;1.00;1.00;;;;;;;;5014698;28;45574;-66
2021/12/27 12:38:13;;;;;;;;;1.00;1.00;;;;;;;;5030792;28;47680;-66
2021/12/27 12:40:39;;;;;;;;;1.00;1.00;;;;;;;;5036060;28;45833;-64
2021/12/27 12:43:05;;;;;;;;;1.00;1.00;;;;;;;;5044381;28;51532;-64
2021/12/27 12:45:31;;;;;;;;;0.00;0.00;;;;;;;;5038664;28;45386;-63
2021/12/27 12:47:56;;;;;;;;;1.00;1.00;;;;;;;;5039977;28;49022;-64
2021/12/27 12:50:22;;;;;;;;;1.00;1.00;;;;;;;;5042737;28;45575;-64
2021/12/27 12:52:51;;;;;;;;;1.00;1.00;;;;;;;;5052934;28;45546;-64
2021/12/27 12:55:19;;;;;;;;;1.00;1.00;;;;;;;;5037868;28;45530;-64
2021/12/27 12:57:48;;;;;;;;;2.00;2.00;;;;;;;;5035700;28;47403;-64
2021/12/27 13:00:19;;;;;;;;;2.33;1.00;;;;;;;;5042688;28;45465;-65
2021/12/27 13:02:45;;;;;;;;;1.00;1.00;;;;;;;;5045828;28;45520;-64
2021/12/27 13:05:15;;;;;;;;;3.00;2.00;;;;;;;;5033696;28;45626;-64
2021/12/27 13:07:45;;;;;;;;;1.33;1.00;;;;;;;;5036739;28;48003;-64
2021/12/27 13:10:16;;;;;;;;;1.00;1.00;;;;;;;;5050687;28;45504;-64
2021/12/27 13:12:41;;;;;;;;;1.00;1.00;;;;;;;;5030398;28;45608;-64
2021/12/27 13:15:09;;;;;;;;;3.00;2.00;;;;;;;;5047835;28;45511;-64
2021/12/27 13:17:37;;;;;;;;;1.00;1.00;;;;;;;;5050496;28;45543;-63
2021/12/27 13:20:12;;;;;;;;;2.00;2.00;;;;;;;;5067152;27;45578;-64
2021/12/27 13:22:43;;;;;;;;;3.00;2.00;;;;;;;;5044698;28;45508;-64
2021/12/27 13:25:08;;;;;;;;;1.00;0.00;;;;;;;;5053015;28;45351;-64
2021/12/27 13:27:34;;;;;;;;;2.00;2.00;;;;;;;;5037169;28;48642;-64
2021/12/27 13:30:05;;;;;;;;;1.33;1.33;;;;;;;;5034000;28;45663;-64
2021/12/27 13:32:31;;;;;;;;;3.00;2.00;;;;;;;;5048281;28;45583;-63
2021/12/27 13:34:56;;;;;;;;;1.67;1.00;;;;;;;;5033517;28;45445;-63
2021/12/27 13:37:21;;;;;;;;;3.00;1.33;;;;;;;;5046846;28;46020;-65
2021/12/27 13:39:46;;;;;;;;;1.00;1.00;;;;;;;;5064932;27;45647;-64
2021/12/27 13:42:15;;;;;;;;;2.67;2.67;;;;;;;;5038759;28;45501;-64
2021/12/27 13:44:40;;;;;;;;;3.00;1.67;;;;;;;;5053846;28;45570;-64
2021/12/27 13:47:07;;;;;;;;;3.00;3.00;;;;;;;;5033378;28;47121;-65
2021/12/27 13:49:32;;;;;;;;;2.33;2.00;;;;;;;;5044337;28;45868;-66
2021/12/27 13:52:00;;;;;;;;;2.00;1.00;;;;;;;;5029412;28;45525;-65
2021/12/27 13:54:38;;;;;;;;;2.67;2.00;;;;;;;;5032356;28;45935;-64
2021/12/27 13:57:03;;;;;;;;;4.67;2.67;;;;;;;;5035109;28;47370;-64
2021/12/27 13:59:33;;;;;;;;;3.33;3.00;;;;;;;;5032180;28;45505;-64
2021/12/27 14:02:00;;;;;;;;;9.67;5.67;;;;;;;;5060383;28;45635;-64
2021/12/27 14:04:27;;;;;;;;;3.00;3.00;;;;;;;;5049046;28;45827;-63
2021/12/27 14:06:52;;;;;;;;;5.67;3.00;;;;;;;;5049659;28;46574;-64
2021/12/27 14:09:22;;;;;;;;;4.00;3.00;;;;;;;;5054205;28;45343;-63
2021/12/27 14:11:51;;;;;;;;;3.33;2.00;;;;;;;;5035667;28;45441;-65
2021/12/27 14:14:33;;;;;;;;;3.67;3.00;;;;;;;;5040475;28;45419;-63
2021/12/27 14:17:26;;;;;;;;;4.00;3.67;;;;;;;;5036300;28;47591;-64
2021/12/27 14:20:00;;;;;;;;;7.00;4.00;;;;;;;;5054368;28;45521;-64
2021/12/27 14:22:26;;;;;;;;;7.67;4.00;;;;;;;;5035095;28;45565;-64
2021/12/27 14:24:51;;;;;;;;;4.00;2.00;;;;;;;;5043906;28;45511;-63
2021/12/27 14:27:25;;;;;;;;;6.00;3.00;;;;;;;;5034200;28;48870;-63
2021/12/27 14:30:06;;;;;;;;;5.00;5.00;;;;;;;;5033995;28;46444;-64
2021/12/27 14:32:31;;;;;;;;;4.00;4.00;;;;;;;;5035267;28;45733;-64
2021/12/27 14:34:57;;;;;;;;;6.67;2.67;;;;;;;;5050774;28;45517;-64
2021/12/27 14:37:23;;;;;;;;;8.33;3.67;;;;;;;;5032282;28;49010;-64
2021/12/27 14:39:49;;;;;;;;;7.33;4.67;;;;;;;;5032760;28;45465;-64
2021/12/27 14:42:14;;;;;;;;;7.00;5.00;;;;;;;;5051117;28;45709;-64
2021/12/27 14:44:41;;;;;;;;;7.33;5.00;;;;;;;;5044817;28;45493;-64
2021/12/27 14:47:06;;;;;;;;;4.00;2.33;;;;;;;;5048305;28;45492;-64